ENHE

Heidrun Airport

Norway
METAR ENHE 092050Z 04029KT 7000 SHRA BKN017 03/01 Q0994 W///S6
Observed Flight Rules
Dec-9 @ 20:50 UTC (49 minutes ago) Marginal Visual Flight Rules
Wind Visibility Clouds Conditions
40° at 29 knots 7,001 meters
  • Broken at 1,700' AGL
  • Rain
Temperatures Readings
Current 3°C / 37°F
Dewpoint 1°C / 34°F
Humidity 87%
Altimeter 29.35" Hg
Pressure 994 hPa
Elevation 1
METAR ENHE 092050Z 04029KT 7000 SHRA BKN017 03/01 Q0994 W///S6
Observed Flight Rules
Dec-9 @ 20:50 UTC
(49 minutes ago)
MVFR
Wind Visibility
40° at 29 knots 7,001 meters
Clouds
  • Broken at 1,700' AGL
Conditions
  • Rain
Temperature Dewpoint
3°C / 37°F 1°C / 34°F
Humidity Altimeter Pressure
87% 29.35" Hg 994 hPa